createdAt,value
2024-04-10T00:01:00.863Z,3.25
2024-04-10T00:03:28.133Z,2.70
2024-04-10T00:06:04.906Z,1.55
2024-04-10T00:08:33.342Z,3.30
2024-04-10T00:11:03.717Z,4.90
2024-04-10T00:13:31.474Z,4.72
2024-04-10T00:16:01.977Z,1.95
2024-04-10T00:18:29.701Z,2.83
2024-04-10T00:20:59.909Z,2.33
2024-04-10T00:23:29.695Z,2.83
2024-04-10T00:26:00.402Z,3.78
2024-04-10T00:28:29.905Z,2.30
2024-04-10T00:30:59.713Z,2.60
2024-04-10T00:33:26.789Z,1.55
2024-04-10T00:36:00.348Z,1.42
2024-04-10T00:38:31.449Z,1.70
2024-04-10T00:41:02.677Z,1.83
2024-04-10T00:43:30.058Z,5.30
2024-04-10T00:46:03.821Z,6.10
2024-04-10T00:48:31.213Z,5.32
2024-04-10T00:51:01.502Z,1.27
2024-04-10T00:53:31.211Z,2.03
2024-04-10T00:56:01.191Z,2.72
2024-04-10T00:58:29.606Z,4.95
2024-04-10T01:00:59.314Z,5.45
2024-04-10T01:03:26.532Z,3.38
2024-04-10T01:06:00.978Z,6.35
2024-04-10T01:08:31.835Z,3.85
2024-04-10T01:11:03.610Z,3.40
2024-04-10T01:13:32.501Z,3.13
2024-04-10T01:16:03.944Z,2.47
2024-04-10T01:18:31.057Z,4.82
2024-04-10T01:21:00.715Z,4.40
2024-04-10T01:23:30.360Z,3.80
2024-04-10T01:25:59.989Z,8.70
2024-04-10T01:28:27.094Z,6.38
2024-04-10T01:30:56.969Z,6.97
2024-04-10T01:33:25.735Z,5.50
2024-04-10T01:35:55.506Z,3.85
2024-04-10T01:38:24.826Z,3.92
2024-04-10T01:40:57.145Z,3.67
2024-04-10T01:43:24.099Z,7.53
2024-04-10T01:45:53.708Z,7.90
2024-04-10T01:48:20.878Z,3.47
2024-04-10T01:50:50.665Z,5.03
2024-04-10T01:53:17.812Z,3.92
2024-04-10T01:55:47.596Z,2.28
2024-04-10T01:58:17.151Z,3.88
2024-04-10T02:00:47.060Z,4.25
2024-04-10T02:03:14.169Z,2.38
2024-04-10T02:05:44.102Z,3.03
2024-04-10T02:08:11.291Z,5.55
2024-04-10T02:10:40.920Z,2.67
2024-04-10T02:13:07.910Z,7.45
2024-04-10T02:15:40.160Z,5.35
2024-04-10T02:18:07.420Z,6.97
2024-04-10T02:20:37.451Z,5.30
2024-04-10T02:23:04.883Z,5.68
2024-04-10T02:25:34.556Z,3.40
2024-04-10T02:28:01.560Z,2.65
2024-04-10T02:30:31.158Z,3.33
2024-04-10T02:33:01.166Z,5.28
2024-04-10T02:35:30.962Z,10.25
2024-04-10T02:37:58.022Z,3.92
2024-04-10T02:40:31.024Z,5.38
2024-04-10T02:43:05.632Z,3.35
2024-04-10T02:45:35.485Z,4.45
2024-04-10T02:48:05.671Z,4.63
2024-04-10T02:50:35.541Z,3.25
2024-04-10T02:53:02.671Z,8.00
2024-04-10T02:55:32.364Z,6.70
2024-04-10T02:57:59.346Z,4.25
2024-04-10T03:00:29.268Z,4.00
2024-04-10T03:02:56.390Z,4.85
2024-04-10T03:05:28.758Z,4.30
2024-04-10T03:07:55.829Z,5.07
2024-04-10T03:10:25.469Z,4.55
2024-04-10T03:12:52.486Z,9.82
2024-04-10T03:15:22.077Z,2.70
2024-04-10T03:17:49.257Z,6.13
2024-04-10T03:20:19.197Z,3.08
2024-04-10T03:22:49.677Z,6.78
2024-04-10T03:25:20.520Z,2.05
2024-04-10T03:27:47.483Z,4.82
2024-04-10T03:30:17.580Z,5.20
2024-04-10T03:32:46.509Z,8.82
2024-04-10T03:35:16.252Z,4.43
2024-04-10T03:37:43.263Z,9.27
2024-04-10T03:40:16.666Z,5.78
2024-04-10T03:42:46.348Z,7.18
2024-04-10T03:45:18.630Z,6.57
2024-04-10T03:47:48.274Z,5.70
2024-04-10T03:50:19.719Z,6.30
2024-04-10T03:52:49.663Z,8.35
2024-04-10T03:55:21.060Z,6.20
2024-04-10T03:57:50.869Z,5.82
2024-04-10T04:00:18.141Z,12.23
2024-04-10T04:02:48.930Z,6.35
2024-04-10T04:05:16.213Z,6.43
2024-04-10T04:07:45.936Z,8.02
2024-04-10T04:10:13.007Z,8.05
2024-04-10T04:12:45.396Z,6.82
2024-04-10T04:15:12.412Z,9.52
2024-04-10T04:17:42.084Z,5.60
2024-04-10T04:20:12.184Z,6.60
2024-04-10T04:22:42.154Z,6.28
2024-04-10T04:25:09.278Z,8.90
2024-04-10T04:27:38.899Z,8.27
2024-04-10T04:30:11.085Z,9.98
2024-04-10T04:32:40.857Z,10.63
2024-04-10T04:35:08.742Z,11.48
2024-04-10T04:37:38.327Z,11.80
2024-04-10T04:40:07.638Z,12.32
2024-04-10T04:42:38.068Z,9.80
2024-04-10T04:45:08.690Z,9.95
2024-04-10T04:47:38.515Z,5.65
2024-04-10T04:50:09.719Z,6.68
2024-04-10T04:52:39.405Z,8.25
2024-04-10T04:55:07.031Z,11.27
2024-04-10T04:57:36.723Z,13.18
2024-04-10T05:00:12.821Z,10.40
2024-04-10T05:02:45.418Z,10.30
2024-04-10T05:07:43.168Z,14.07
2024-04-10T05:10:10.673Z,11.50
2024-04-10T05:12:42.329Z,13.73
2024-04-10T05:15:11.974Z,10.63
2024-04-10T05:17:41.937Z,10.55
2024-04-10T05:20:16.765Z,15.70
2024-04-10T05:22:48.927Z,11.88
2024-04-10T05:25:16.045Z,9.02
2024-04-10T05:27:45.791Z,11.23
2024-04-10T05:30:14.425Z,10.57
2024-04-10T05:32:45.036Z,9.13
2024-04-10T05:35:15.484Z,11.75
2024-04-10T05:37:45.543Z,16.58
2024-04-10T05:40:15.300Z,12.05
2024-04-10T05:42:45.858Z,14.45
2024-04-10T05:45:14.016Z,11.05
2024-04-10T05:47:46.360Z,11.63
2024-04-10T05:50:16.216Z,14.68
2024-04-10T05:52:46.520Z,17.80
2024-04-10T05:55:14.449Z,6.78
2024-04-10T05:57:44.071Z,10.20
2024-04-10T06:00:13.090Z,15.48
2024-04-10T06:02:42.916Z,12.05
2024-04-10T06:05:10.370Z,10.98
2024-04-10T06:07:43.929Z,11.07
2024-04-10T06:10:12.590Z,14.77
2024-04-10T06:12:42.233Z,10.55
2024-04-10T06:15:09.303Z,9.57
2024-04-10T06:17:39.327Z,12.60
2024-04-10T06:20:11.260Z,13.35
2024-04-10T06:22:43.818Z,10.73
2024-04-10T06:25:10.866Z,13.05
2024-04-10T06:27:40.439Z,16.98
2024-04-10T06:30:10.864Z,12.40
2024-04-10T06:32:40.917Z,11.95
2024-04-10T06:35:08.963Z,17.75
2024-04-10T06:37:38.644Z,13.68
2024-04-10T06:40:09.721Z,16.15
2024-04-10T06:42:39.343Z,16.13
2024-04-10T06:45:06.832Z,16.35
2024-04-10T06:47:39.817Z,19.05
2024-04-10T06:50:08.354Z,19.27
2024-04-10T06:52:37.909Z,16.50
2024-04-10T06:55:06.725Z,16.65
2024-04-10T06:57:38.944Z,17.20
2024-04-10T07:00:14.284Z,15.88
2024-04-10T07:02:44.378Z,14.07
2024-04-10T07:05:11.477Z,11.32
2024-04-10T07:07:41.857Z,9.45
2024-04-10T07:10:10.441Z,11.55
2024-04-10T07:12:42.725Z,16.15
2024-04-10T07:15:09.689Z,12.52
2024-04-10T07:17:39.440Z,13.18
2024-04-10T07:20:07.390Z,16.00
2024-04-10T07:22:39.998Z,19.33
2024-04-10T07:25:08.108Z,11.48
2024-04-10T07:27:37.805Z,12.50
2024-04-10T07:30:09.539Z,10.05
2024-04-10T07:32:39.390Z,14.23
2024-04-10T07:35:08.013Z,10.48
2024-04-10T07:37:37.805Z,8.95
2024-04-10T07:40:05.976Z,14.30
2024-04-10T07:42:37.981Z,9.98
2024-04-10T07:45:09.414Z,16.52
2024-04-10T07:47:39.206Z,7.05
2024-04-10T07:50:07.005Z,11.55
2024-04-10T07:52:36.621Z,10.60
2024-04-10T07:55:03.872Z,10.25
2024-04-10T07:57:33.768Z,10.20
2024-04-10T08:00:00.737Z,5.57
2024-04-10T08:02:33.474Z,12.23
2024-04-10T08:05:00.868Z,12.75
2024-04-10T08:07:31.045Z,15.48
2024-04-10T08:09:58.039Z,10.10
2024-04-10T08:12:27.919Z,11.27
2024-04-10T08:14:55.121Z,8.48
2024-04-10T08:17:27.119Z,9.07
2024-04-10T08:19:56.850Z,8.40
2024-04-10T08:22:26.483Z,11.23
2024-04-10T08:24:53.418Z,7.88
2024-04-10T08:27:23.038Z,7.05
2024-04-10T08:29:50.048Z,3.75
2024-04-10T08:32:19.673Z,10.95
2024-04-10T08:34:46.966Z,6.30
2024-04-10T08:37:19.320Z,4.55
2024-04-10T08:39:48.941Z,5.03
2024-04-10T08:42:23.019Z,8.88
2024-04-10T08:44:52.737Z,8.30
2024-04-10T08:47:25.137Z,9.18
2024-04-10T08:52:25.657Z,7.43
2024-04-10T08:54:52.811Z,3.45
2024-04-10T08:57:22.453Z,4.18
2024-04-10T08:59:49.827Z,10.18
2024-04-10T09:02:19.692Z,7.85
2024-04-10T09:04:47.546Z,11.27
2024-04-10T09:07:23.822Z,9.50
2024-04-10T09:09:53.372Z,9.38
2024-04-10T09:12:26.705Z,5.38
2024-04-10T09:15:02.861Z,6.65
2024-04-10T09:17:32.591Z,7.97
2024-04-10T09:19:59.658Z,11.13
2024-04-10T09:22:31.857Z,6.25
2024-04-10T09:25:09.127Z,6.45
2024-04-10T09:27:38.760Z,8.13
2024-04-10T09:30:06.784Z,8.55
2024-04-10T09:32:37.345Z,6.88
2024-04-10T09:35:06.890Z,10.20
2024-04-10T09:37:39.388Z,9.95
2024-04-10T09:40:07.278Z,6.60
2024-04-10T09:42:43.217Z,9.75
2024-04-10T09:45:16.534Z,8.77
2024-04-10T09:47:47.965Z,13.13
2024-04-10T09:50:20.735Z,8.40
2024-04-10T09:52:55.163Z,10.05
2024-04-10T09:55:22.168Z,9.98
2024-04-10T09:57:51.894Z,10.30
2024-04-10T10:00:19.603Z,7.97
2024-04-10T10:02:49.211Z,10.48
2024-04-10T10:05:22.871Z,9.55
2024-04-10T10:08:08.566Z,9.57
2024-04-10T10:10:46.131Z,8.98
2024-04-10T10:13:15.942Z,7.95
2024-04-10T10:15:42.946Z,5.72
2024-04-10T10:18:15.890Z,6.32
2024-04-10T10:20:49.492Z,6.38
2024-04-10T10:23:23.975Z,9.38
2024-04-10T10:25:51.072Z,5.88
2024-04-10T10:28:21.460Z,5.32
2024-04-10T10:30:48.526Z,4.22
2024-04-10T10:33:22.014Z,6.07
2024-04-10T10:35:49.291Z,6.63
2024-04-10T10:38:21.514Z,5.50
2024-04-10T10:40:48.565Z,5.43
2024-04-10T10:43:18.904Z,5.00
2024-04-10T10:45:50.869Z,4.25
2024-04-10T10:48:21.295Z,4.80
2024-04-10T10:50:55.099Z,6.03
2024-04-10T10:53:28.724Z,4.60
2024-04-10T10:55:58.028Z,4.40
2024-04-10T10:58:28.412Z,8.48
2024-04-10T11:00:55.701Z,6.65
2024-04-10T11:03:30.213Z,4.28
2024-04-10T11:06:08.069Z,3.30
2024-04-10T11:08:41.151Z,2.47
2024-04-10T11:11:10.934Z,1.67
2024-04-10T11:13:50.370Z,2.70
2024-04-10T11:16:27.929Z,2.13
2024-04-10T11:18:57.688Z,1.88
2024-04-10T11:21:24.985Z,3.15
2024-04-10T11:23:57.999Z,1.92
2024-04-10T11:26:25.963Z,2.10
2024-04-10T11:28:59.829Z,2.95
2024-04-10T11:31:27.241Z,2.22
2024-04-10T11:33:57.298Z,5.32
2024-04-10T11:36:24.730Z,3.65
2024-04-10T11:38:57.138Z,4.30
2024-04-10T11:43:53.991Z,4.00
2024-04-10T11:46:21.047Z,4.25
2024-04-10T11:48:50.777Z,4.50
2024-04-10T11:51:23.704Z,5.65
2024-04-10T11:53:53.456Z,4.07
2024-04-10T11:56:23.732Z,5.03
2024-04-10T11:58:53.938Z,4.45
2024-04-10T12:01:21.022Z,4.63
2024-04-10T12:03:50.933Z,2.83
2024-04-10T12:06:20.903Z,9.73
2024-04-10T12:08:48.284Z,3.38
2024-04-10T12:11:18.134Z,3.38
2024-04-10T12:13:48.946Z,6.50
2024-04-10T12:16:18.599Z,6.43
2024-04-10T12:18:45.712Z,2.03
2024-04-10T12:21:15.446Z,3.50
2024-04-10T12:23:42.567Z,6.38
2024-04-10T12:26:12.986Z,3.28
2024-04-10T12:28:40.136Z,3.40
2024-04-10T12:31:13.618Z,4.32
2024-04-10T12:33:40.926Z,6.82
2024-04-10T12:36:26.613Z,3.88
2024-04-10T12:38:56.371Z,5.05
2024-04-10T12:41:26.047Z,4.60
2024-04-10T12:43:58.472Z,3.78
2024-04-10T12:46:29.085Z,6.53
2024-04-10T12:48:58.980Z,6.55
2024-04-10T12:51:26.005Z,6.40
2024-04-10T12:53:55.803Z,6.30
2024-04-10T12:56:23.438Z,3.63
2024-04-10T12:58:53.175Z,5.57
2024-04-10T13:01:20.326Z,11.80
2024-04-10T13:03:54.904Z,2.70
2024-04-10T13:06:22.803Z,3.20
2024-04-10T13:08:52.529Z,2.00
2024-04-10T13:11:20.086Z,2.70
2024-04-10T13:13:50.516Z,3.63
2024-04-10T13:16:17.813Z,3.78
2024-04-10T13:18:47.779Z,2.53
2024-04-10T13:21:19.605Z,2.75
2024-04-10T13:23:49.493Z,4.13
2024-04-10T13:26:16.872Z,3.00
2024-04-10T13:28:51.001Z,4.47
2024-04-10T13:31:20.666Z,4.18
2024-04-10T13:33:52.873Z,4.55
2024-04-10T13:36:23.469Z,5.70
2024-04-10T13:38:55.569Z,8.27
2024-04-10T13:41:24.666Z,3.08
2024-04-10T13:43:56.485Z,3.95
2024-04-10T13:46:24.514Z,5.47
2024-04-10T13:48:55.721Z,3.10
2024-04-10T13:51:26.764Z,5.90
2024-04-10T13:53:57.347Z,2.25
2024-04-10T13:56:24.781Z,5.28
2024-04-10T13:58:54.574Z,3.25
2024-04-10T14:01:23.150Z,3.28
2024-04-10T14:03:55.492Z,7.50
2024-04-10T14:06:27.681Z,6.05
2024-04-10T14:08:58.648Z,3.77
2024-04-10T14:11:32.022Z,7.13
2024-04-10T14:14:03.075Z,5.75
2024-04-10T14:16:30.179Z,4.57
2024-04-10T14:18:59.940Z,5.43
2024-04-10T14:21:31.103Z,2.97
2024-04-10T14:24:03.502Z,7.78
2024-04-10T14:26:32.717Z,4.90
2024-04-10T14:29:02.330Z,4.72
2024-04-10T14:31:29.325Z,6.20
2024-04-10T14:33:59.864Z,7.53
2024-04-10T14:36:33.328Z,5.18
2024-04-10T14:39:03.792Z,6.22
2024-04-10T14:41:31.057Z,2.58
2024-04-10T14:44:00.684Z,6.50
2024-04-10T14:46:27.737Z,3.58
2024-04-10T14:48:57.406Z,4.75
2024-04-10T14:51:24.654Z,5.38
2024-04-10T14:53:56.931Z,4.30
2024-04-10T14:56:25.400Z,2.88
2024-04-10T14:58:55.099Z,4.75
2024-04-10T15:01:23.088Z,2.72
2024-04-10T15:03:55.970Z,2.97
2024-04-10T15:06:23.727Z,6.00
2024-04-10T15:08:59.489Z,4.85
2024-04-10T15:11:28.495Z,2.90
2024-04-10T15:13:59.216Z,4.22
2024-04-10T15:16:26.502Z,3.08
2024-04-10T15:18:59.344Z,5.22
2024-04-10T15:21:28.258Z,5.65
2024-04-10T15:24:00.783Z,4.15
2024-04-10T15:26:28.001Z,2.70
2024-04-10T15:28:57.655Z,3.88
2024-04-10T15:31:24.898Z,6.68
2024-04-10T15:33:54.650Z,3.95
2024-04-10T15:36:21.753Z,6.78
2024-04-10T15:38:53.334Z,6.85
2024-04-10T15:41:24.352Z,3.17
2024-04-10T15:43:54.667Z,4.90
2024-04-10T15:46:22.636Z,2.72
2024-04-10T15:48:53.460Z,5.43
2024-04-10T15:51:21.145Z,6.60
2024-04-10T15:53:51.006Z,6.20
2024-04-10T15:56:18.212Z,3.33
2024-04-10T15:58:50.807Z,4.38
2024-04-10T16:03:48.533Z,2.47
2024-04-10T16:06:17.425Z,5.85
2024-04-10T16:08:47.611Z,3.28
2024-04-10T16:11:15.919Z,3.72
2024-04-10T16:13:46.084Z,3.05
2024-04-10T16:16:19.011Z,4.47
2024-04-10T16:18:50.699Z,5.03
2024-04-10T16:21:18.225Z,6.38
2024-04-10T16:23:50.244Z,2.78
2024-04-10T16:26:19.625Z,3.63
2024-04-10T16:28:49.676Z,4.85
2024-04-10T16:31:20.163Z,5.95
2024-04-10T16:33:51.247Z,5.18
2024-04-10T16:36:19.486Z,3.40
2024-04-10T16:38:49.780Z,4.68
2024-04-10T16:41:18.297Z,5.30
2024-04-10T16:43:48.797Z,5.10
2024-04-10T16:46:18.670Z,5.38
2024-04-10T16:48:49.797Z,4.25
2024-04-10T16:51:17.086Z,3.40
2024-04-10T16:53:49.150Z,7.40
2024-04-10T16:56:16.729Z,5.70
2024-04-10T16:58:46.740Z,7.15
2024-04-10T17:01:15.154Z,3.90
2024-04-10T17:03:48.307Z,9.48
2024-04-10T17:06:15.533Z,8.70
2024-04-10T17:08:45.396Z,6.18
2024-04-10T17:11:16.179Z,6.72
2024-04-10T17:13:46.335Z,5.30
2024-04-10T17:16:13.782Z,3.80
2024-04-10T17:19:11.071Z,7.95
2024-04-10T17:21:50.521Z,12.80
2024-04-10T17:24:22.132Z,13.23
2024-04-10T17:26:52.177Z,21.55
2024-04-10T17:29:23.562Z,35.90
2024-04-10T17:34:21.821Z,10.45
2024-04-10T17:36:54.384Z,29.20
2024-04-10T17:39:29.102Z,18.55
2024-04-10T17:41:56.398Z,24.75
2024-04-10T17:44:26.278Z,20.85
2024-04-10T17:46:53.479Z,17.80
2024-04-10T17:49:23.316Z,14.48
2024-04-10T17:51:53.136Z,7.50
2024-04-10T17:54:22.774Z,6.47
2024-04-10T17:56:49.872Z,7.35
2024-04-10T17:59:19.702Z,13.70
2024-04-10T18:01:46.882Z,8.35
2024-04-10T18:04:16.607Z,9.82
2024-04-10T18:06:43.758Z,7.28
2024-04-10T18:09:16.048Z,10.65
2024-04-10T18:11:43.091Z,9.75
2024-04-10T18:14:13.065Z,9.93
2024-04-10T18:16:42.195Z,6.68
2024-04-10T18:19:12.305Z,7.78
2024-04-10T18:21:39.491Z,6.32
2024-04-10T18:24:09.983Z,8.85
2024-04-10T18:26:39.754Z,7.75
2024-04-10T18:29:13.191Z,9.38
2024-04-10T18:31:40.680Z,7.30
2024-04-10T18:34:11.298Z,6.32
2024-04-10T18:36:38.520Z,6.03
2024-04-10T18:39:09.099Z,6.93
2024-04-10T18:41:37.646Z,10.43
2024-04-10T18:44:11.762Z,9.77
2024-04-10T18:46:38.924Z,7.93
2024-04-10T18:49:08.706Z,9.88
2024-04-10T18:51:35.805Z,11.88
2024-04-10T18:54:06.968Z,8.93
2024-04-10T18:56:34.387Z,10.98
2024-04-10T18:59:04.169Z,8.75
2024-04-10T19:01:33.756Z,9.50
2024-04-10T19:04:03.930Z,12.85
2024-04-10T19:06:31.480Z,8.25
2024-04-10T19:09:01.523Z,8.85
2024-04-10T19:11:28.783Z,13.65
2024-04-10T19:13:58.512Z,7.15
2024-04-10T19:16:25.688Z,7.18
2024-04-10T19:18:58.112Z,7.38
2024-04-10T19:21:25.222Z,8.38
2024-04-10T19:23:55.008Z,6.20
2024-04-10T19:26:22.045Z,8.77
2024-04-10T19:28:53.644Z,8.23
2024-04-10T19:31:20.821Z,6.00
2024-04-10T19:33:50.789Z,11.95
2024-04-10T19:36:24.180Z,9.43
2024-04-10T19:38:53.807Z,8.27
2024-04-10T19:41:21.160Z,9.43
2024-04-10T19:43:51.076Z,7.70
2024-04-10T19:46:18.150Z,7.53
2024-04-10T19:48:48.263Z,9.80
2024-04-10T19:51:15.682Z,20.77
2024-04-10T19:53:48.082Z,13.35
2024-04-10T19:56:16.068Z,11.55
2024-04-10T19:58:45.799Z,11.43
2024-04-10T20:01:13.353Z,12.93
2024-04-10T20:03:44.348Z,12.40
2024-04-10T20:06:12.596Z,10.68
2024-04-10T20:08:42.982Z,12.82
2024-04-10T20:11:13.313Z,14.68
2024-04-10T20:13:45.389Z,14.75
2024-04-10T20:16:12.516Z,12.20
2024-04-10T20:18:44.166Z,14.73
2024-04-10T20:21:13.255Z,17.73
2024-04-10T20:23:44.141Z,14.68
2024-04-10T20:26:16.722Z,16.33
2024-04-10T20:28:47.770Z,14.45
2024-04-10T20:31:15.542Z,15.48
2024-04-10T20:33:48.245Z,12.43
2024-04-10T20:36:15.848Z,10.63
2024-04-10T20:38:45.691Z,14.13
2024-04-10T20:41:17.278Z,11.45
2024-04-10T20:43:48.245Z,11.48
2024-04-10T20:46:16.212Z,10.00
2024-04-10T20:48:49.493Z,12.05
2024-04-10T20:51:18.439Z,16.00
2024-04-10T20:53:49.389Z,15.73
2024-04-10T20:56:21.560Z,14.85
2024-04-10T20:58:52.113Z,11.80
2024-04-10T21:01:20.676Z,12.85
2024-04-10T21:03:52.239Z,10.93
2024-04-10T21:06:19.683Z,12.65
2024-04-10T21:09:07.015Z,12.27
2024-04-10T21:11:56.873Z,14.00
2024-04-10T21:14:42.827Z,10.98
2024-04-10T21:17:28.679Z,11.82
2024-04-10T21:20:14.200Z,11.38
2024-04-10T21:22:59.733Z,14.38
2024-04-10T21:25:48.817Z,11.77
2024-04-10T21:28:37.513Z,11.65
2024-04-10T21:31:23.559Z,12.68
2024-04-10T21:34:09.288Z,15.13
2024-04-10T21:36:54.810Z,13.93
2024-04-10T21:39:40.200Z,11.80
2024-04-10T21:42:26.198Z,8.63
2024-04-10T21:45:14.627Z,10.65
2024-04-10T21:48:00.293Z,12.30
2024-04-10T21:50:46.069Z,11.05
2024-04-10T21:53:31.915Z,9.30
2024-04-10T21:56:21.300Z,11.00
2024-04-10T21:59:07.011Z,12.38
2024-04-10T22:02:05.076Z,8.73
2024-04-10T22:08:21.231Z,10.23
2024-04-10T22:10:51.540Z,12.65
2024-04-10T22:13:21.248Z,12.10
2024-04-10T22:15:51.410Z,9.45
2024-04-10T22:18:36.878Z,7.88
2024-04-10T22:21:22.408Z,9.23
2024-04-10T22:24:05.546Z,8.32
2024-04-10T22:26:36.270Z,9.13
2024-04-10T22:29:06.099Z,8.75
2024-04-10T22:31:33.079Z,7.10
2024-04-10T22:34:02.919Z,11.57
2024-04-10T22:36:30.083Z,8.15
2024-04-10T22:39:02.521Z,11.98
2024-04-10T22:41:29.696Z,9.05
2024-04-10T22:43:59.404Z,13.93
2024-04-10T22:46:26.455Z,10.82
2024-04-10T22:48:57.258Z,8.15
2024-04-10T22:51:24.234Z,9.88
2024-04-10T22:53:53.983Z,9.95
2024-04-10T22:56:23.644Z,9.18
2024-04-10T22:58:55.835Z,9.05
2024-04-10T23:01:22.952Z,7.53
2024-04-10T23:03:52.863Z,9.73
2024-04-10T23:06:20.015Z,9.27
2024-04-10T23:08:50.011Z,10.02
2024-04-10T23:11:17.285Z,9.95
2024-04-10T23:13:49.544Z,9.13
2024-04-10T23:16:16.700Z,12.57
2024-04-10T23:19:02.876Z,9.00
2024-04-10T23:21:33.752Z,7.88
2024-04-10T23:24:03.416Z,12.75
2024-04-10T23:26:31.194Z,13.90
2024-04-10T23:29:04.195Z,9.70
2024-04-10T23:31:31.390Z,9.55
2024-04-10T23:34:01.476Z,8.48
2024-04-10T23:36:28.697Z,12.18
2024-04-10T23:38:58.651Z,7.60
2024-04-10T23:41:25.669Z,12.05
2024-04-10T23:43:55.343Z,9.25
2024-04-10T23:46:24.959Z,8.60
2024-04-10T23:48:54.712Z,7.88
2024-04-10T23:51:22.910Z,8.50
2024-04-10T23:53:52.608Z,8.90
2024-04-10T23:56:19.636Z,10.70
2024-04-10T23:58:49.785Z,12.70
